createdAt,value
2022-10-11T00:02:19.646Z,75.02
2022-10-11T00:04:50.688Z,73.40
2022-10-11T00:07:20.542Z,73.83
2022-10-11T00:09:47.170Z,73.81
2022-10-11T00:12:14.011Z,74.01
2022-10-11T00:14:40.757Z,73.93
2022-10-11T00:17:10.206Z,74.55
2022-10-11T00:19:42.545Z,74.82
2022-10-11T00:22:09.401Z,73.38
2022-10-11T00:24:38.371Z,73.34
2022-10-11T00:27:05.407Z,73.25
2022-10-11T00:29:32.060Z,73.76
2022-10-11T00:31:58.958Z,73.41
2022-10-11T00:34:25.776Z,74.34
2022-10-11T00:36:54.720Z,73.72
2022-10-11T00:39:21.691Z,74.03
2022-10-11T00:41:49.444Z,73.50
2022-10-11T00:44:22.036Z,73.84
2022-10-11T00:46:55.560Z,72.45
2022-10-11T00:49:34.514Z,72.31
2022-10-11T00:52:12.023Z,73.44
2022-10-11T00:54:42.561Z,73.93
2022-10-11T00:57:14.380Z,73.96
2022-10-11T00:59:45.286Z,73.78
2022-10-11T01:02:14.649Z,72.69
2022-10-11T01:04:42.214Z,72.67
2022-10-11T01:07:11.463Z,72.81
2022-10-11T01:09:38.004Z,75.08
2022-10-11T01:12:13.035Z,74.31
2022-10-11T01:15:03.402Z,72.87
2022-10-11T01:17:44.475Z,74.00
2022-10-11T01:20:26.488Z,74.12
2022-10-11T01:23:15.598Z,75.90
2022-10-11T01:25:48.221Z,75.00
2022-10-11T01:28:33.121Z,75.91
2022-10-11T01:31:09.987Z,75.16
2022-10-11T01:34:03.379Z,75.82
2022-10-11T01:36:35.200Z,75.00
2022-10-11T01:39:06.425Z,74.65
2022-10-11T01:41:41.196Z,75.16
2022-10-11T01:44:09.365Z,74.68
2022-10-11T01:46:37.184Z,73.83
2022-10-11T01:49:04.044Z,74.22
2022-10-11T01:51:40.575Z,74.56
2022-10-11T01:54:56.666Z,73.95
2022-10-11T01:57:46.775Z,76.62
2022-10-11T02:00:20.771Z,74.42
2022-10-11T02:03:23.617Z,75.84
2022-10-11T02:06:05.031Z,75.59
2022-10-11T02:08:34.600Z,75.00
2022-10-11T02:11:14.963Z,75.92
2022-10-11T02:13:48.689Z,75.80
2022-10-11T02:16:21.864Z,76.33
2022-10-11T02:18:51.900Z,75.14
2022-10-11T02:21:22.141Z,74.93
2022-10-11T02:23:55.507Z,76.15
2022-10-11T02:26:25.295Z,75.35
2022-10-11T02:28:56.842Z,75.12
2022-10-11T02:31:25.111Z,75.90
2022-10-11T02:34:20.352Z,75.10
2022-10-11T02:37:09.202Z,75.56
2022-10-11T02:39:56.561Z,75.86
2022-10-11T02:42:32.795Z,75.55
2022-10-11T02:45:07.952Z,75.88
2022-10-11T02:47:35.085Z,76.02
2022-10-11T02:50:02.329Z,75.95
2022-10-11T02:52:29.275Z,74.15
2022-10-11T02:54:55.882Z,73.84
2022-10-11T02:57:22.379Z,74.68
2022-10-11T02:59:48.899Z,75.60
2022-10-11T03:02:15.542Z,75.66
2022-10-11T03:04:42.197Z,74.95
2022-10-11T03:07:08.711Z,74.59
2022-10-11T03:09:35.372Z,75.66
2022-10-11T03:12:01.874Z,75.90
2022-10-11T03:14:28.508Z,75.63
2022-10-11T03:16:55.153Z,75.60
2022-10-11T03:19:21.757Z,75.96
2022-10-11T03:21:48.441Z,75.28
2022-10-11T03:24:15.062Z,75.22
2022-10-11T03:26:41.705Z,75.18
2022-10-11T03:29:08.938Z,76.02
2022-10-11T03:31:36.121Z,76.04
2022-10-11T03:34:04.775Z,75.42
2022-10-11T03:36:31.553Z,75.96
2022-10-11T03:39:01.016Z,76.19
2022-10-11T03:41:27.677Z,75.78
2022-10-11T03:43:54.204Z,76.11
2022-10-11T03:46:21.125Z,76.00
2022-10-11T03:48:48.551Z,75.42
2022-10-11T03:51:15.267Z,74.99
2022-10-11T03:53:42.168Z,74.78
2022-10-11T03:56:10.023Z,76.70
2022-10-11T03:58:36.771Z,76.44
2022-10-11T04:01:03.953Z,77.00
2022-10-11T04:03:31.031Z,76.81
2022-10-11T04:05:57.744Z,77.29
2022-10-11T04:08:24.378Z,76.87
2022-10-11T04:10:51.263Z,75.58
2022-10-11T04:13:17.888Z,74.90
2022-10-11T04:15:44.688Z,75.43
2022-10-11T04:18:14.311Z,75.97
2022-10-11T04:20:42.812Z,75.54
2022-10-11T04:23:10.357Z,75.18
2022-10-11T04:25:39.190Z,75.19
2022-10-11T04:28:08.125Z,76.85
2022-10-11T04:30:34.936Z,76.77
2022-10-11T04:33:01.634Z,76.72
2022-10-11T04:35:28.344Z,76.65
2022-10-11T04:37:57.287Z,75.93
2022-10-11T04:40:23.981Z,75.57
2022-10-11T04:42:52.031Z,75.54
2022-10-11T04:45:18.576Z,76.03
2022-10-11T04:47:45.115Z,76.68
2022-10-11T04:50:11.626Z,76.34
2022-10-11T04:52:38.227Z,76.88
2022-10-11T04:55:05.315Z,76.86
2022-10-11T04:57:34.518Z,77.05
2022-10-11T05:00:04.701Z,76.06
2022-10-11T05:02:32.529Z,77.15
2022-10-11T05:04:59.778Z,77.37
2022-10-11T05:07:26.425Z,77.00
2022-10-11T05:09:53.035Z,75.78
2022-10-11T05:12:22.761Z,76.04
2022-10-11T05:14:49.266Z,77.48
2022-10-11T05:17:15.829Z,77.12
2022-10-11T05:19:42.283Z,77.52
2022-10-11T05:22:09.380Z,77.73
2022-10-11T05:24:35.957Z,77.62
2022-10-11T05:27:03.645Z,77.28
2022-10-11T05:29:33.053Z,77.25
2022-10-11T05:31:59.681Z,77.62
2022-10-11T05:34:26.333Z,77.96
2022-10-11T05:36:52.890Z,77.53
2022-10-11T05:39:19.518Z,77.71
2022-10-11T05:41:46.725Z,78.05
2022-10-11T05:44:13.277Z,78.06
2022-10-11T05:46:40.305Z,77.70
2022-10-11T05:49:06.816Z,77.59
2022-10-11T05:51:33.661Z,78.06
2022-10-11T05:54:00.197Z,76.74
2022-10-11T05:56:27.105Z,77.42
2022-10-11T05:58:56.553Z,77.95
2022-10-11T06:01:28.207Z,77.71
2022-10-11T06:03:55.897Z,76.43
2022-10-11T06:06:23.077Z,78.54
2022-10-11T06:08:50.178Z,78.16
2022-10-11T06:11:21.926Z,78.21
2022-10-11T06:13:48.827Z,77.98
2022-10-11T06:16:16.279Z,78.12
2022-10-11T06:18:42.996Z,78.27
2022-10-11T06:21:10.174Z,79.26
2022-10-11T06:23:36.676Z,79.14
2022-10-11T06:26:08.231Z,77.97
2022-10-11T06:28:36.255Z,77.40
2022-10-11T06:31:05.315Z,78.71
2022-10-11T06:33:32.340Z,78.56
2022-10-11T06:36:02.862Z,79.01
2022-10-11T06:38:29.475Z,79.60
2022-10-11T06:40:56.206Z,80.24
2022-10-11T06:43:22.877Z,80.80
2022-10-11T06:45:49.532Z,81.39
2022-10-11T06:48:17.446Z,81.42
2022-10-11T06:50:59.179Z,82.01
2022-10-11T06:53:29.360Z,82.26
2022-10-11T06:56:02.990Z,82.59
2022-10-11T06:58:30.072Z,83.18
2022-10-11T07:01:02.199Z,83.35
2022-10-11T07:03:30.337Z,83.62
2022-10-11T07:06:06.545Z,82.90
2022-10-11T07:08:33.720Z,83.63
2022-10-11T07:11:07.116Z,83.05
2022-10-11T07:13:33.858Z,83.58
2022-10-11T07:16:02.448Z,83.57
2022-10-11T07:18:29.922Z,83.77
2022-10-11T07:20:56.668Z,83.67
2022-10-11T07:23:24.088Z,83.82
2022-10-11T07:25:54.703Z,85.10
2022-10-11T07:28:25.764Z,85.33
2022-10-11T07:30:52.594Z,84.55
2022-10-11T07:33:19.546Z,84.24
2022-10-11T07:35:48.536Z,85.96
2022-10-11T07:38:16.725Z,84.66
2022-10-11T07:40:45.896Z,83.64
2022-10-11T07:43:13.608Z,82.92
2022-10-11T07:45:41.522Z,83.15
2022-10-11T07:48:09.403Z,84.71
2022-10-11T07:50:36.030Z,83.75
2022-10-11T07:53:03.145Z,84.60
2022-10-11T07:55:33.458Z,83.93
2022-10-11T07:58:00.037Z,83.62
2022-10-11T08:00:30.319Z,83.97
2022-10-11T08:02:57.132Z,84.61
2022-10-11T08:05:23.840Z,83.67
2022-10-11T08:07:50.772Z,84.54
2022-10-11T08:10:17.841Z,84.47
2022-10-11T08:12:48.102Z,84.14
2022-10-11T08:15:14.839Z,84.86
2022-10-11T08:17:41.765Z,83.79
2022-10-11T08:20:08.846Z,84.98
2022-10-11T08:22:35.475Z,85.17
2022-10-11T08:25:02.199Z,85.11
2022-10-11T08:27:28.818Z,85.13
2022-10-11T08:29:55.526Z,84.73
2022-10-11T08:32:22.230Z,84.83
2022-10-11T08:34:48.961Z,84.83
2022-10-11T08:37:15.657Z,85.38
2022-10-11T08:39:42.148Z,84.92
2022-10-11T08:42:25.435Z,84.94
2022-10-11T08:45:10.477Z,83.86
2022-10-11T08:47:41.442Z,83.15
2022-10-11T08:50:19.563Z,82.65
2022-10-11T08:53:14.542Z,81.21
2022-10-11T08:55:48.486Z,84.06
2022-10-11T08:58:21.811Z,82.28
2022-10-11T09:00:52.564Z,82.38
2022-10-11T09:03:42.519Z,82.08
2022-10-11T09:06:40.035Z,83.80
2022-10-11T09:09:55.767Z,82.85
2022-10-11T09:12:42.727Z,83.02
2022-10-11T09:15:17.016Z,84.06
2022-10-11T09:18:21.605Z,80.67
2022-10-11T09:20:56.390Z,81.02
2022-10-11T09:23:34.737Z,81.44
2022-10-11T09:26:11.342Z,81.13
2022-10-11T09:29:15.293Z,79.29
2022-10-11T09:31:49.382Z,79.85
2022-10-11T09:34:16.688Z,81.06
2022-10-11T09:37:21.036Z,76.51
2022-10-11T09:40:00.358Z,78.22
2022-10-11T09:42:28.018Z,82.08
2022-10-11T09:44:57.272Z,80.57
2022-10-11T09:47:28.868Z,80.10
2022-10-11T09:50:03.143Z,79.54
2022-10-11T09:52:30.277Z,79.49
2022-10-11T09:55:01.147Z,77.96
2022-10-11T09:57:31.967Z,76.54
2022-10-11T10:00:08.557Z,77.41
2022-10-11T10:02:56.503Z,77.01
2022-10-11T10:05:26.349Z,75.16
2022-10-11T10:08:09.771Z,73.08
2022-10-11T10:11:02.656Z,74.52
2022-10-11T10:13:38.159Z,72.97
2022-10-11T10:16:16.356Z,72.85
2022-10-11T10:18:52.731Z,67.62
2022-10-11T10:21:28.040Z,72.07
2022-10-11T10:23:56.908Z,70.52
2022-10-11T10:26:26.553Z,73.53
2022-10-11T10:28:56.684Z,72.91
2022-10-11T10:31:30.895Z,69.70
2022-10-11T10:33:57.801Z,69.98
2022-10-11T10:36:32.582Z,68.87
2022-10-11T10:39:00.885Z,69.00
2022-10-11T10:41:31.405Z,68.03
2022-10-11T10:44:00.753Z,67.66
2022-10-11T10:46:48.505Z,65.63
2022-10-11T10:52:49.066Z,68.25
2022-10-11T10:55:24.714Z,67.48
2022-10-11T10:58:18.795Z,66.26
2022-10-11T11:00:51.744Z,67.88
2022-10-11T11:03:39.216Z,64.13
2022-10-11T11:06:22.328Z,63.85
2022-10-11T11:09:01.668Z,66.57
2022-10-11T11:11:52.266Z,65.11
2022-10-11T11:14:44.892Z,64.71
2022-10-11T11:17:54.163Z,63.75
2022-10-11T11:20:40.889Z,61.42
2022-10-11T11:23:32.404Z,63.06
2022-10-11T11:26:18.594Z,62.35
2022-10-11T11:29:03.432Z,64.00
2022-10-11T11:31:46.164Z,63.08
2022-10-11T11:34:22.258Z,62.98
2022-10-11T11:36:57.772Z,62.69
2022-10-11T11:39:43.978Z,62.30
2022-10-11T11:42:19.807Z,61.69
2022-10-11T11:44:48.670Z,60.88
2022-10-11T11:47:19.074Z,58.40
2022-10-11T11:49:50.079Z,60.37
2022-10-11T11:52:33.665Z,56.59
2022-10-11T11:55:22.134Z,59.11
2022-10-11T11:58:07.066Z,55.90
2022-10-11T12:00:49.137Z,58.87
2022-10-11T12:03:24.573Z,59.27
2022-10-11T12:06:14.676Z,58.90
2022-10-11T12:08:44.786Z,58.37
2022-10-11T12:11:29.418Z,56.49
2022-10-11T12:13:59.874Z,58.42
2022-10-11T12:16:27.214Z,58.49
2022-10-11T12:18:56.256Z,58.02
2022-10-11T12:21:37.052Z,57.76
2022-10-11T12:24:06.684Z,58.20
2022-10-11T12:26:44.399Z,56.35
2022-10-11T12:29:17.766Z,57.30
2022-10-11T12:31:46.464Z,58.21
2022-10-11T12:34:35.910Z,59.42
2022-10-11T12:37:20.807Z,58.45
2022-10-11T12:39:52.350Z,57.06
2022-10-11T12:42:32.799Z,55.37
2022-10-11T12:45:11.446Z,54.28
2022-10-11T12:48:00.985Z,54.31
2022-10-11T12:50:53.697Z,56.14
2022-10-11T12:53:37.550Z,55.20
2022-10-11T12:56:12.362Z,55.61
2022-10-11T12:58:41.461Z,55.61
2022-10-11T13:01:14.283Z,55.84
2022-10-11T13:04:02.962Z,53.39
2022-10-11T13:06:33.946Z,54.59
2022-10-11T13:09:09.884Z,54.47
2022-10-11T13:11:48.958Z,55.61
2022-10-11T13:14:19.230Z,53.86
2022-10-11T13:17:07.043Z,54.45
2022-10-11T13:19:38.181Z,54.45
2022-10-11T13:22:15.832Z,54.48
2022-10-11T13:24:42.966Z,53.40
2022-10-11T13:27:19.965Z,52.32
2022-10-11T13:29:48.014Z,52.55
2022-10-11T13:32:18.471Z,51.78
2022-10-11T13:34:50.026Z,51.87
2022-10-11T13:37:20.026Z,50.22
2022-10-11T13:39:51.346Z,51.04
2022-10-11T13:42:22.599Z,50.96
2022-10-11T13:44:52.224Z,51.15
2022-10-11T13:47:29.907Z,51.06
2022-10-11T13:50:23.403Z,48.52
2022-10-11T13:52:56.612Z,50.54
2022-10-11T13:55:31.034Z,51.16
2022-10-11T13:57:59.807Z,51.46
2022-10-11T14:00:31.889Z,51.07
2022-10-11T14:03:19.493Z,51.23
2022-10-11T14:05:59.746Z,49.93
2022-10-11T14:08:50.621Z,50.27
2022-10-11T14:11:33.574Z,49.37
2022-10-11T14:14:00.531Z,50.72
2022-10-11T14:16:29.505Z,50.94
2022-10-11T14:19:10.332Z,49.84
2022-10-11T14:21:46.255Z,50.66
2022-10-11T14:24:13.527Z,51.45
2022-10-11T14:26:46.500Z,51.48
2022-10-11T14:29:21.159Z,51.31
2022-10-11T14:31:47.852Z,51.72
2022-10-11T14:34:21.443Z,51.12
2022-10-11T14:36:48.776Z,51.40
2022-10-11T14:39:24.346Z,51.96
2022-10-11T14:41:52.718Z,51.27
2022-10-11T14:44:22.087Z,51.39
2022-10-11T14:46:50.782Z,51.17
2022-10-11T14:49:25.042Z,50.35
2022-10-11T14:51:52.769Z,50.97
2022-10-11T14:54:22.767Z,50.93
2022-10-11T14:56:51.373Z,51.07
2022-10-11T14:59:21.899Z,51.33
2022-10-11T15:01:53.825Z,50.63
2022-10-11T15:04:22.793Z,50.07
2022-10-11T15:06:50.111Z,49.48
2022-10-11T15:09:17.566Z,50.53
2022-10-11T15:11:44.085Z,50.74
2022-10-11T15:14:10.681Z,50.99
2022-10-11T15:16:37.290Z,50.79
2022-10-11T15:19:04.159Z,51.63
2022-10-11T15:21:31.217Z,51.97
2022-10-11T15:24:01.339Z,51.94
2022-10-11T15:26:29.337Z,52.45
2022-10-11T15:28:57.614Z,52.73
2022-10-11T15:31:24.471Z,52.85
2022-10-11T15:33:51.854Z,52.76
2022-10-11T15:36:22.193Z,52.94
2022-10-11T15:38:49.508Z,53.16
2022-10-11T15:41:19.467Z,53.58
2022-10-11T15:43:48.695Z,53.80
2022-10-11T15:46:22.339Z,54.13
2022-10-11T15:48:54.071Z,54.33
2022-10-11T15:51:23.098Z,54.11
2022-10-11T15:53:51.141Z,53.92
2022-10-11T15:56:21.572Z,53.79
2022-10-11T15:58:48.628Z,53.97
2022-10-11T16:01:18.771Z,53.36
2022-10-11T16:03:47.173Z,53.19
2022-10-11T16:06:14.251Z,53.13
2022-10-11T16:08:41.263Z,52.83
2022-10-11T16:11:10.047Z,52.84
2022-10-11T16:13:37.231Z,53.03
2022-10-11T16:16:08.704Z,52.99
2022-10-11T16:18:38.977Z,53.13
2022-10-11T16:21:09.655Z,53.39
2022-10-11T16:23:37.303Z,53.13
2022-10-11T16:26:10.227Z,53.58
2022-10-11T16:28:37.857Z,53.56
2022-10-11T16:31:11.380Z,53.65
2022-10-11T16:33:48.006Z,53.96
2022-10-11T16:36:36.223Z,54.28
2022-10-11T16:39:15.836Z,54.43
2022-10-11T16:41:46.088Z,55.00
2022-10-11T16:44:14.757Z,55.22
2022-10-11T16:46:42.192Z,55.62
2022-10-11T16:49:11.531Z,55.58
2022-10-11T16:51:38.127Z,55.84
2022-10-11T16:54:04.995Z,56.45
2022-10-11T16:56:37.387Z,56.70
2022-10-11T16:59:06.478Z,57.05
2022-10-11T17:01:33.394Z,57.46
2022-10-11T17:04:00.178Z,57.53
2022-10-11T17:06:27.081Z,57.84
2022-10-11T17:08:56.727Z,58.19
2022-10-11T17:11:23.980Z,58.31
2022-10-11T17:13:53.458Z,58.55
2022-10-11T17:16:21.317Z,58.71
2022-10-11T17:18:48.610Z,59.35
2022-10-11T17:21:18.011Z,59.65
2022-10-11T17:23:45.265Z,59.54
2022-10-11T17:26:19.382Z,60.50
2022-10-11T17:28:46.383Z,60.34
2022-10-11T17:31:13.196Z,60.62
2022-10-11T17:33:39.860Z,60.71
2022-10-11T17:36:23.204Z,62.09
2022-10-11T17:38:51.357Z,60.68
2022-10-11T17:41:21.416Z,61.06
2022-10-11T17:43:49.383Z,61.77
2022-10-11T17:46:18.815Z,61.90
2022-10-11T17:48:45.728Z,61.79
2022-10-11T17:51:17.847Z,61.94
2022-10-11T17:53:46.429Z,62.17
2022-10-11T17:56:23.907Z,62.19
2022-10-11T17:58:55.339Z,62.85
2022-10-11T18:01:25.817Z,62.83
2022-10-11T18:04:01.679Z,63.12
2022-10-11T18:06:31.904Z,63.34
2022-10-11T18:09:02.842Z,63.88
2022-10-11T18:11:32.598Z,63.85
2022-10-11T18:13:59.437Z,64.23
2022-10-11T18:16:28.576Z,63.89
2022-10-11T18:18:57.455Z,64.03
2022-10-11T18:21:28.764Z,64.12
2022-10-11T18:24:02.185Z,63.92
2022-10-11T18:26:30.635Z,64.07
2022-10-11T18:28:58.472Z,64.19
2022-10-11T18:31:30.044Z,64.96
2022-10-11T18:33:57.252Z,64.60
2022-10-11T18:36:26.824Z,65.02
2022-10-11T18:39:01.097Z,65.82
2022-10-11T18:41:32.081Z,65.69
2022-10-11T18:44:01.651Z,65.62
2022-10-11T18:46:30.141Z,65.76
2022-10-11T18:48:58.767Z,65.78
2022-10-11T18:51:31.567Z,66.17
2022-10-11T18:54:00.966Z,65.47
2022-10-11T18:56:30.053Z,66.10
2022-10-11T18:58:59.287Z,66.27
2022-10-11T19:01:32.003Z,66.05
2022-10-11T19:04:02.452Z,66.55
2022-10-11T19:06:33.491Z,66.80
2022-10-11T19:09:02.670Z,66.46
2022-10-11T19:11:29.911Z,66.25
2022-10-11T19:13:59.384Z,66.57
2022-10-11T19:16:29.957Z,66.77
2022-10-11T19:18:57.787Z,66.75
2022-10-11T19:21:24.810Z,66.98
2022-10-11T19:23:51.836Z,67.02
2022-10-11T19:26:22.060Z,67.21
2022-10-11T19:28:55.371Z,67.77
2022-10-11T19:31:22.710Z,66.56
2022-10-11T19:33:49.656Z,66.66
2022-10-11T19:36:17.478Z,67.05
2022-10-11T19:38:46.446Z,67.52
2022-10-11T19:41:17.389Z,67.78
2022-10-11T19:43:46.218Z,68.05
2022-10-11T19:46:20.277Z,68.11
2022-10-11T19:48:54.376Z,68.00
2022-10-11T19:51:25.908Z,67.33
2022-10-11T19:54:02.886Z,67.93
2022-10-11T19:56:32.236Z,67.91
2022-10-11T19:58:59.658Z,68.40
2022-10-11T20:01:29.740Z,68.22
2022-10-11T20:03:57.573Z,67.90
2022-10-11T20:06:25.995Z,66.87
2022-10-11T20:09:16.708Z,67.45
2022-10-11T20:11:40.319Z,67.27
2022-10-11T20:14:06.954Z,66.92
2022-10-11T20:16:33.526Z,66.67
2022-10-11T20:19:00.315Z,66.56
2022-10-11T20:21:29.545Z,67.01
2022-10-11T20:24:01.742Z,67.61
2022-10-11T20:26:29.657Z,66.72
2022-10-11T20:28:57.166Z,67.38
2022-10-11T20:31:29.813Z,68.27
2022-10-11T20:33:59.149Z,67.09
2022-10-11T20:36:29.726Z,66.81
2022-10-11T20:38:58.170Z,66.70
2022-10-11T20:41:32.533Z,67.42
2022-10-11T20:44:04.710Z,67.96
2022-10-11T20:46:33.822Z,67.53
2022-10-11T20:49:04.595Z,66.24
2022-10-11T20:51:33.716Z,66.85
2022-10-11T20:54:02.715Z,67.33
2022-10-11T20:56:29.995Z,67.73
2022-10-11T20:58:58.345Z,67.52
2022-10-11T21:01:31.329Z,67.43
2022-10-11T21:03:59.607Z,66.89
2022-10-11T21:06:26.782Z,66.70
2022-10-11T21:08:55.331Z,66.99
2022-10-11T21:11:24.731Z,67.05
2022-10-11T21:13:55.829Z,67.15
2022-10-11T21:16:22.856Z,67.52
2022-10-11T21:18:54.347Z,68.24
2022-10-11T21:21:21.830Z,67.49
2022-10-11T21:23:48.530Z,67.08
2022-10-11T21:26:18.346Z,67.85
2022-10-11T21:28:46.432Z,68.23
2022-10-11T21:31:15.495Z,68.74
2022-10-11T21:33:44.420Z,68.21
2022-10-11T21:36:17.116Z,67.15
2022-10-11T21:38:44.388Z,67.24
2022-10-11T21:41:13.840Z,67.39
2022-10-11T21:43:40.855Z,67.39
2022-10-11T21:46:10.980Z,67.26
2022-10-11T21:48:39.179Z,65.23
2022-10-11T21:51:06.812Z,66.30
2022-10-11T21:53:33.928Z,67.34
2022-10-11T21:56:01.419Z,67.33
2022-10-11T21:58:28.341Z,67.13
2022-10-11T22:00:55.061Z,67.75
2022-10-11T22:03:21.855Z,68.36
2022-10-11T22:05:49.128Z,69.48
2022-10-11T22:08:16.341Z,70.00
2022-10-11T22:10:44.404Z,68.81
2022-10-11T22:13:11.665Z,69.96
2022-10-11T22:15:39.343Z,69.18
2022-10-11T22:18:06.265Z,68.75
2022-10-11T22:20:33.780Z,68.22
2022-10-11T22:23:00.469Z,68.85
2022-10-11T22:25:27.076Z,68.11
2022-10-11T22:27:54.088Z,67.66
2022-10-11T22:30:20.705Z,68.52
2022-10-11T22:32:47.459Z,68.42
2022-10-11T22:35:14.086Z,68.11
2022-10-11T22:37:40.987Z,68.84
2022-10-11T22:40:08.462Z,68.59
2022-10-11T22:42:35.121Z,68.32
2022-10-11T22:45:01.814Z,68.38
2022-10-11T22:47:28.599Z,68.29
2022-10-11T22:49:55.141Z,68.41
2022-10-11T22:52:21.714Z,69.09
2022-10-11T22:54:48.241Z,67.95
2022-10-11T22:57:14.902Z,69.13
2022-10-11T22:59:41.596Z,69.20
2022-10-11T23:02:08.493Z,70.20
2022-10-11T23:04:35.433Z,70.84
2022-10-11T23:07:04.946Z,70.94
2022-10-11T23:09:31.864Z,71.03
2022-10-11T23:11:59.550Z,71.16
2022-10-11T23:14:26.239Z,70.84
2022-10-11T23:16:53.371Z,71.25
2022-10-11T23:19:19.993Z,71.03
2022-10-11T23:21:46.996Z,70.50
2022-10-11T23:24:13.867Z,72.31
2022-10-11T23:26:40.555Z,71.77
2022-10-11T23:29:07.147Z,71.09
2022-10-11T23:31:33.717Z,70.57
2022-10-11T23:34:00.337Z,70.18
2022-10-11T23:36:28.596Z,70.45
2022-10-11T23:38:57.368Z,70.07
2022-10-11T23:41:26.068Z,70.55
2022-10-11T23:43:53.173Z,69.50
2022-10-11T23:46:20.037Z,70.40
2022-10-11T23:48:46.965Z,69.63
2022-10-11T23:51:17.696Z,70.39
2022-10-11T23:53:44.300Z,70.98
2022-10-11T23:56:11.312Z,71.18
2022-10-11T23:58:38.156Z,71.35
